createdAt,value
2019-01-24T00:00:05.784Z,50.57
2019-01-24T00:02:35.750Z,50.80
2019-01-24T00:05:05.061Z,51.97
2019-01-24T00:07:33.406Z,53.20
2019-01-24T00:10:01.749Z,59.50
2019-01-24T00:12:30.180Z,53.37
2019-01-24T00:14:58.766Z,49.80
2019-01-24T00:17:27.117Z,56.47
2019-01-24T00:19:55.469Z,50.93
2019-01-24T00:22:23.822Z,48.00
2019-01-24T00:24:52.171Z,51.77
2019-01-24T00:27:20.530Z,50.03
2019-01-24T00:29:49.374Z,50.47
2019-01-24T00:32:17.735Z,48.33
2019-01-24T00:34:46.742Z,52.00
2019-01-24T00:37:15.086Z,49.07
2019-01-24T00:39:43.441Z,47.33
2019-01-24T00:42:11.785Z,51.33
2019-01-24T00:44:40.132Z,50.23
2019-01-24T00:47:08.482Z,49.13
2019-01-24T00:49:36.834Z,51.97
2019-01-24T00:52:05.172Z,48.17
2019-01-24T00:54:33.518Z,52.67
2019-01-24T00:57:03.366Z,47.97
2019-01-24T00:59:31.689Z,47.67
2019-01-24T01:02:00.045Z,52.93
2019-01-24T01:04:29.816Z,56.67
2019-01-24T01:06:58.501Z,52.03
2019-01-24T01:09:26.844Z,50.33
2019-01-24T01:11:55.188Z,51.47
2019-01-24T01:14:23.545Z,45.93
2019-01-24T01:16:52.210Z,45.37
2019-01-24T01:19:20.565Z,53.13
2019-01-24T01:21:48.908Z,51.03
2019-01-24T01:24:18.515Z,47.60
2019-01-24T01:26:46.874Z,53.07
2019-01-24T01:29:15.221Z,46.87
2019-01-24T01:31:43.732Z,46.07
2019-01-24T01:34:12.098Z,51.53
2019-01-24T01:36:40.453Z,49.10
2019-01-24T01:39:08.878Z,53.83
2019-01-24T01:41:37.302Z,56.27
2019-01-24T01:44:05.663Z,53.80
2019-01-24T01:46:34.001Z,54.63
2019-01-24T01:49:02.352Z,53.23
2019-01-24T01:51:30.694Z,52.10
2019-01-24T01:53:59.041Z,52.03
2019-01-24T01:56:27.381Z,54.20
2019-01-24T01:58:55.737Z,47.17
2019-01-24T02:01:24.077Z,49.53
2019-01-24T02:03:52.431Z,47.07
2019-01-24T02:06:20.773Z,47.53
2019-01-24T02:08:49.117Z,51.57
2019-01-24T02:11:18.688Z,46.27
2019-01-24T02:13:47.361Z,44.30
2019-01-24T02:16:15.705Z,49.87
2019-01-24T02:18:44.054Z,51.40
2019-01-24T02:21:14.714Z,51.33
2019-01-24T02:23:43.045Z,49.43
2019-01-24T02:26:11.693Z,54.00
2019-01-24T02:28:40.034Z,48.87
2019-01-24T02:31:08.389Z,51.33
2019-01-24T02:33:36.745Z,48.03
2019-01-24T02:36:05.108Z,52.23
2019-01-24T02:38:33.453Z,50.53
2019-01-24T02:41:01.813Z,52.77
2019-01-24T02:43:30.158Z,49.03
2019-01-24T02:45:58.505Z,57.63
2019-01-24T02:48:26.848Z,51.07
2019-01-24T02:50:55.205Z,49.83
2019-01-24T02:53:23.570Z,51.17
2019-01-24T02:55:53.077Z,48.83
2019-01-24T02:58:21.432Z,52.23
2019-01-24T03:00:49.824Z,52.13
2019-01-24T03:03:18.205Z,50.93
2019-01-24T03:05:46.572Z,49.63
2019-01-24T03:08:14.912Z,53.50
2019-01-24T03:10:43.257Z,50.90
2019-01-24T03:13:11.688Z,50.57
2019-01-24T03:15:40.021Z,51.80
2019-01-24T03:18:09.483Z,58.50
2019-01-24T03:20:37.838Z,52.30
2019-01-24T03:23:06.188Z,51.57
2019-01-24T03:25:34.615Z,53.07
2019-01-24T03:28:02.953Z,53.50
2019-01-24T03:30:32.271Z,49.47
2019-01-24T03:33:00.620Z,49.17
2019-01-24T03:35:28.984Z,50.40
2019-01-24T03:37:57.339Z,53.60
2019-01-24T03:40:25.695Z,49.33
2019-01-24T03:42:55.116Z,48.37
2019-01-24T03:45:23.473Z,50.27
2019-01-24T03:47:51.891Z,54.93
2019-01-24T03:50:21.000Z,52.00
2019-01-24T03:52:49.709Z,56.60
2019-01-24T03:55:21.101Z,50.07
2019-01-24T03:57:49.462Z,48.47
2019-01-24T04:00:18.871Z,47.03
2019-01-24T04:02:47.273Z,48.83
2019-01-24T04:05:15.632Z,45.87
2019-01-24T04:07:43.969Z,46.10
2019-01-24T04:10:13.594Z,49.00
2019-01-24T04:12:41.937Z,52.70
2019-01-24T04:15:14.638Z,51.40
2019-01-24T04:17:44.385Z,50.67
2019-01-24T04:20:12.725Z,52.87
2019-01-24T04:22:41.077Z,49.77
2019-01-24T04:25:09.415Z,52.67
2019-01-24T04:27:37.771Z,50.30
2019-01-24T04:30:08.281Z,47.33
2019-01-24T04:32:36.630Z,53.50
2019-01-24T04:35:06.259Z,45.03
2019-01-24T04:37:34.613Z,54.57
2019-01-24T04:40:02.967Z,49.73
2019-01-24T04:42:31.318Z,47.70
2019-01-24T04:44:59.670Z,48.77
2019-01-24T04:47:29.810Z,48.43
2019-01-24T04:50:08.811Z,48.87
2019-01-24T04:52:38.234Z,52.00
2019-01-24T04:55:07.946Z,52.00
2019-01-24T04:57:36.366Z,50.20
2019-01-24T05:00:10.749Z,49.23
2019-01-24T05:02:39.415Z,49.03
2019-01-24T05:05:07.772Z,48.80
2019-01-24T05:07:36.114Z,49.60
2019-01-24T05:10:05.950Z,53.37
2019-01-24T05:12:34.299Z,50.10
2019-01-24T05:15:02.645Z,52.43
2019-01-24T05:17:31.006Z,49.97
2019-01-24T05:19:59.366Z,52.83
2019-01-24T05:22:27.721Z,52.17
2019-01-24T05:24:56.066Z,54.47
2019-01-24T05:27:25.146Z,53.60
2019-01-24T05:29:53.510Z,53.10
2019-01-24T05:32:23.729Z,51.47
2019-01-24T05:34:52.090Z,54.50
2019-01-24T05:37:22.039Z,53.17
2019-01-24T05:39:50.381Z,52.87
2019-01-24T05:42:18.748Z,53.20
2019-01-24T05:44:47.093Z,50.77
2019-01-24T05:47:15.469Z,50.57
2019-01-24T05:49:43.809Z,53.60
2019-01-24T05:52:19.216Z,51.27
2019-01-24T05:54:42.549Z,56.00
2019-01-24T05:57:10.890Z,54.43
2019-01-24T05:59:40.077Z,52.43
2019-01-24T06:02:10.224Z,51.13
2019-01-24T06:04:38.577Z,51.13
2019-01-24T06:07:06.929Z,53.90
2019-01-24T06:09:35.281Z,57.07
2019-01-24T06:12:03.625Z,54.00
2019-01-24T06:14:32.003Z,52.90
2019-01-24T06:17:01.621Z,55.70
2019-01-24T06:19:30.903Z,49.90
2019-01-24T06:21:59.257Z,53.53
2019-01-24T06:24:27.605Z,49.57
2019-01-24T06:26:57.429Z,47.37
2019-01-24T06:29:25.776Z,50.27
2019-01-24T06:31:54.126Z,50.70
2019-01-24T06:34:22.469Z,60.70
2019-01-24T06:36:51.167Z,59.43
2019-01-24T06:39:19.505Z,54.77
2019-01-24T06:41:47.861Z,51.97
2019-01-24T06:44:16.526Z,49.90
2019-01-24T06:46:44.866Z,51.73
2019-01-24T06:49:14.829Z,45.77
2019-01-24T06:51:43.177Z,52.07
2019-01-24T06:54:12.606Z,48.87
2019-01-24T06:56:40.953Z,49.60
2019-01-24T06:59:09.767Z,51.93
2019-01-24T07:01:38.121Z,62.30
2019-01-24T07:04:06.473Z,50.30
2019-01-24T07:06:34.825Z,51.67
2019-01-24T07:09:04.806Z,56.53
2019-01-24T07:11:33.165Z,50.33
2019-01-24T07:14:01.512Z,51.33
2019-01-24T07:16:29.860Z,61.70
2019-01-24T07:18:58.195Z,57.17
2019-01-24T07:21:27.110Z,55.83
2019-01-24T07:24:01.172Z,61.17
2019-01-24T07:26:28.697Z,53.10
2019-01-24T07:28:57.028Z,58.97
2019-01-24T07:31:25.383Z,58.07
2019-01-24T07:33:53.784Z,54.90
2019-01-24T07:36:22.133Z,53.07
2019-01-24T07:38:51.809Z,55.97
2019-01-24T07:41:20.158Z,57.67
2019-01-24T07:43:48.834Z,59.93
2019-01-24T07:46:17.180Z,57.43
2019-01-24T07:48:45.770Z,55.03
2019-01-24T07:51:14.126Z,55.00
2019-01-24T07:53:42.462Z,59.60
2019-01-24T07:56:10.828Z,54.40
2019-01-24T07:58:39.183Z,56.30
2019-01-24T08:01:10.569Z,52.13
2019-01-24T08:03:38.926Z,52.83
2019-01-24T08:06:09.134Z,51.87
2019-01-24T08:08:40.900Z,56.00
2019-01-24T08:11:09.252Z,64.53
2019-01-24T08:13:39.198Z,58.10
2019-01-24T08:16:08.543Z,61.27
2019-01-24T08:18:46.259Z,55.03
2019-01-24T08:21:20.902Z,51.20
2019-01-24T08:23:54.271Z,54.90
2019-01-24T08:26:29.342Z,50.20
2019-01-24T08:29:06.103Z,53.37
2019-01-24T08:31:36.901Z,54.63
2019-01-24T08:34:10.497Z,52.07
2019-01-24T08:36:41.383Z,54.00
2019-01-24T08:39:12.148Z,54.07
2019-01-24T08:41:46.351Z,56.33
2019-01-24T08:44:22.309Z,57.10
2019-01-24T08:46:59.935Z,58.60
2019-01-24T08:49:28.871Z,55.73
2019-01-24T08:52:03.657Z,49.70
2019-01-24T08:54:37.507Z,58.00
2019-01-24T08:57:07.476Z,52.37
2019-01-24T08:59:38.363Z,57.57
2019-01-24T09:02:13.421Z,52.33
2019-01-24T09:04:46.893Z,55.77
2019-01-24T09:07:15.487Z,54.13
2019-01-24T09:09:48.280Z,55.93
2019-01-24T09:12:19.443Z,55.93
2019-01-24T09:14:48.968Z,51.87
2019-01-24T09:17:29.726Z,57.90
2019-01-24T09:20:05.011Z,59.03
2019-01-24T09:22:41.551Z,51.90
2019-01-24T09:25:10.356Z,54.13
2019-01-24T09:27:43.264Z,56.67
2019-01-24T09:30:22.517Z,58.73
2019-01-24T09:32:56.761Z,62.83
2019-01-24T09:38:19.929Z,54.67
2019-01-24T09:40:48.780Z,61.83
2019-01-24T09:43:17.130Z,56.83
2019-01-24T09:45:45.487Z,55.90
2019-01-24T09:48:15.482Z,58.80
2019-01-24T09:50:43.838Z,65.10
2019-01-24T09:53:12.201Z,61.90
2019-01-24T09:55:41.699Z,57.67
2019-01-24T09:58:17.129Z,56.77
2019-01-24T10:00:53.651Z,59.43
2019-01-24T10:03:33.789Z,51.80
2019-01-24T10:06:05.428Z,70.07
2019-01-24T10:08:35.302Z,58.20
2019-01-24T10:11:03.638Z,56.70
2019-01-24T10:13:32.001Z,62.33
2019-01-24T10:16:00.349Z,59.57
2019-01-24T10:18:28.946Z,56.33
2019-01-24T10:20:59.221Z,61.20
2019-01-24T10:23:28.499Z,59.10
2019-01-24T10:26:06.835Z,60.13
2019-01-24T10:28:40.927Z,56.97
2019-01-24T10:31:17.270Z,66.37
2019-01-24T10:33:48.535Z,63.77
2019-01-24T10:36:16.892Z,56.60
2019-01-24T10:38:46.480Z,56.17
2019-01-24T10:41:14.855Z,67.57
2019-01-24T10:43:43.204Z,57.83
2019-01-24T10:46:12.783Z,53.07
2019-01-24T10:48:42.744Z,59.17
2019-01-24T10:51:12.069Z,57.50
2019-01-24T10:53:42.062Z,57.47
2019-01-24T10:56:16.540Z,58.70
2019-01-24T10:58:50.045Z,58.20
2019-01-24T11:01:19.521Z,57.57
2019-01-24T11:03:47.857Z,59.47
2019-01-24T11:06:16.217Z,58.53
2019-01-24T11:08:44.565Z,66.03
2019-01-24T11:11:12.916Z,57.10
2019-01-24T11:13:41.265Z,57.30
2019-01-24T11:16:11.264Z,61.80
2019-01-24T11:18:39.603Z,63.77
2019-01-24T11:21:09.197Z,57.47
2019-01-24T11:23:37.549Z,58.57
2019-01-24T11:26:05.883Z,59.77
2019-01-24T11:28:37.397Z,50.00
2019-01-24T11:31:05.753Z,56.50
2019-01-24T11:33:34.093Z,68.97
2019-01-24T11:36:02.443Z,53.63
2019-01-24T11:38:30.792Z,61.27
2019-01-24T11:40:59.151Z,59.67
2019-01-24T11:43:27.498Z,59.77
2019-01-24T11:45:55.861Z,62.03
2019-01-24T11:48:24.213Z,59.43
2019-01-24T11:50:52.573Z,58.53
2019-01-24T11:53:20.923Z,59.53
2019-01-24T11:55:49.281Z,58.10
2019-01-24T11:58:17.627Z,60.70
2019-01-24T12:00:47.681Z,65.50
2019-01-24T12:03:16.041Z,61.47
2019-01-24T12:05:45.464Z,53.47
2019-01-24T12:08:13.823Z,55.07
2019-01-24T12:10:44.503Z,44.23
2019-01-24T12:13:13.756Z,61.30
2019-01-24T12:15:42.105Z,62.30
2019-01-24T12:18:10.458Z,59.13
2019-01-24T12:20:39.426Z,58.53
2019-01-24T12:23:09.845Z,64.20
2019-01-24T12:25:39.430Z,65.57
2019-01-24T12:28:07.823Z,64.20
2019-01-24T12:30:38.378Z,61.47
2019-01-24T12:33:07.497Z,61.23
2019-01-24T12:35:35.859Z,58.00
2019-01-24T12:38:06.118Z,66.50
2019-01-24T12:40:34.475Z,58.33
2019-01-24T12:43:04.865Z,61.90
2019-01-24T12:45:34.493Z,72.17
2019-01-24T12:48:02.846Z,63.77
2019-01-24T12:50:31.196Z,60.13
2019-01-24T12:53:02.155Z,58.87
2019-01-24T12:55:35.995Z,60.40
2019-01-24T12:58:08.147Z,63.80
2019-01-24T13:00:36.865Z,62.83
2019-01-24T13:03:05.225Z,58.23
2019-01-24T13:05:33.571Z,60.93
2019-01-24T13:08:04.760Z,61.07
2019-01-24T13:10:35.255Z,59.70
2019-01-24T13:13:04.153Z,59.83
2019-01-24T13:15:33.857Z,61.17
2019-01-24T13:18:02.205Z,61.17
2019-01-24T13:20:33.006Z,70.70
2019-01-24T13:23:02.365Z,63.13
2019-01-24T13:25:31.599Z,64.10
2019-01-24T13:28:01.204Z,63.57
2019-01-24T13:30:30.436Z,62.93
2019-01-24T13:32:58.881Z,68.20
2019-01-24T13:35:27.226Z,59.03
2019-01-24T13:37:55.580Z,60.17
2019-01-24T13:40:24.992Z,61.13
2019-01-24T13:42:53.337Z,59.93
2019-01-24T13:45:22.856Z,65.90
2019-01-24T13:47:51.219Z,56.93
2019-01-24T13:50:19.552Z,57.77
2019-01-24T13:52:47.914Z,57.77
2019-01-24T13:55:16.273Z,66.47
2019-01-24T13:57:44.685Z,69.23
2019-01-24T14:00:14.666Z,61.27
2019-01-24T14:02:44.187Z,60.77
2019-01-24T14:05:14.204Z,64.73
2019-01-24T14:07:42.553Z,72.80
2019-01-24T14:10:13.366Z,63.03
2019-01-24T14:12:41.701Z,54.23
2019-01-24T14:15:17.814Z,56.73
2019-01-24T14:17:47.073Z,60.93
2019-01-24T14:20:20.615Z,66.20
2019-01-24T14:22:54.166Z,67.40
2019-01-24T14:25:28.535Z,61.90
2019-01-24T14:28:05.636Z,62.67
2019-01-24T14:30:33.994Z,67.17
2019-01-24T14:33:03.587Z,58.13
2019-01-24T14:35:32.419Z,67.87
2019-01-24T14:38:00.843Z,57.83
2019-01-24T14:40:30.297Z,65.90
2019-01-24T14:42:58.637Z,65.67
2019-01-24T14:45:27.424Z,64.27
2019-01-24T14:47:58.788Z,67.03
2019-01-24T14:50:29.921Z,64.87
2019-01-24T14:52:58.276Z,60.53
2019-01-24T14:55:26.889Z,70.00
2019-01-24T14:57:55.226Z,62.53
2019-01-24T15:00:25.205Z,62.87
2019-01-24T15:02:55.168Z,60.90
2019-01-24T15:05:24.879Z,65.67
2019-01-24T15:07:54.390Z,62.87
2019-01-24T15:10:22.766Z,66.93
2019-01-24T15:12:51.117Z,64.27
2019-01-24T15:15:20.630Z,63.10
2019-01-24T15:17:49.044Z,62.57
2019-01-24T15:20:18.049Z,68.40
2019-01-24T15:22:46.525Z,69.00
2019-01-24T15:25:15.742Z,62.37
2019-01-24T15:27:44.566Z,59.70
2019-01-24T15:30:23.982Z,62.57
2019-01-24T15:32:52.334Z,69.37
2019-01-24T15:35:20.710Z,67.43
2019-01-24T15:37:54.271Z,61.87
2019-01-24T15:40:31.406Z,63.57
2019-01-24T15:42:59.752Z,60.87
2019-01-24T15:45:30.800Z,62.10
2019-01-24T15:48:02.526Z,63.57
2019-01-24T15:50:32.797Z,63.90
2019-01-24T15:53:01.712Z,60.37
2019-01-24T15:55:30.060Z,65.70
2019-01-24T15:58:02.135Z,66.63
2019-01-24T16:00:34.159Z,58.83
2019-01-24T16:03:02.501Z,67.13
2019-01-24T16:05:32.961Z,64.97
2019-01-24T16:08:03.095Z,58.73
2019-01-24T16:10:31.454Z,62.13
2019-01-24T16:13:01.248Z,63.30
2019-01-24T16:15:30.908Z,75.60
2019-01-24T16:17:59.257Z,65.00
2019-01-24T16:20:28.568Z,63.60
2019-01-24T16:22:56.918Z,58.73
2019-01-24T16:25:26.240Z,56.43
2019-01-24T16:27:54.596Z,59.80
2019-01-24T16:30:24.213Z,71.27
2019-01-24T16:32:52.583Z,55.17
2019-01-24T16:35:20.943Z,58.80
2019-01-24T16:37:50.685Z,59.73
2019-01-24T16:40:22.470Z,64.47
2019-01-24T16:42:53.299Z,59.20
2019-01-24T16:45:22.840Z,59.83
2019-01-24T16:47:51.202Z,56.60
2019-01-24T16:50:23.153Z,63.47
2019-01-24T16:52:52.730Z,57.20
2019-01-24T16:55:21.086Z,59.03
2019-01-24T16:57:49.904Z,64.30
2019-01-24T17:00:19.881Z,59.07
2019-01-24T17:02:48.297Z,67.10
2019-01-24T17:05:16.637Z,59.07
2019-01-24T17:07:45.832Z,59.73
2019-01-24T17:10:16.033Z,58.37
2019-01-24T17:12:45.367Z,64.07
2019-01-24T17:15:16.246Z,60.57
2019-01-24T17:17:45.964Z,60.00
2019-01-24T17:20:15.693Z,58.87
2019-01-24T17:22:44.024Z,64.27
2019-01-24T17:25:13.112Z,61.57
2019-01-24T17:27:46.296Z,70.17
2019-01-24T17:30:21.544Z,61.63
2019-01-24T17:32:49.886Z,59.83
2019-01-24T17:35:18.309Z,61.50
2019-01-24T17:37:47.716Z,67.43
2019-01-24T17:40:26.141Z,64.17
2019-01-24T17:42:54.581Z,58.87
2019-01-24T17:45:23.005Z,65.53
2019-01-24T17:47:51.360Z,68.20
2019-01-24T17:50:19.796Z,60.83
2019-01-24T17:52:49.779Z,60.50
2019-01-24T17:55:19.761Z,63.13
2019-01-24T17:57:53.331Z,65.53
2019-01-24T18:00:26.896Z,56.07
2019-01-24T18:02:56.882Z,59.63
2019-01-24T18:05:29.230Z,66.00
2019-01-24T18:07:57.577Z,60.27
2019-01-24T18:10:26.591Z,66.73
2019-01-24T18:12:56.239Z,57.73
2019-01-24T18:15:32.648Z,62.70
2019-01-24T18:18:00.999Z,58.90
2019-01-24T18:20:30.969Z,63.07
2019-01-24T18:22:59.903Z,49.87
2019-01-24T18:25:28.257Z,70.17
2019-01-24T18:27:56.669Z,63.27
2019-01-24T18:30:28.931Z,55.90
2019-01-24T18:32:57.289Z,59.70
2019-01-24T18:35:25.649Z,63.17
2019-01-24T18:37:54.027Z,65.27
2019-01-24T18:40:24.018Z,54.70
2019-01-24T18:42:52.710Z,67.07
2019-01-24T18:45:25.605Z,59.83
2019-01-24T18:47:55.556Z,64.00
2019-01-24T18:50:27.546Z,58.53
2019-01-24T18:52:55.876Z,64.37
2019-01-24T18:55:24.930Z,60.23
2019-01-24T18:57:53.342Z,62.10
2019-01-24T19:00:36.248Z,60.17
2019-01-24T19:03:05.221Z,59.53
2019-01-24T19:05:34.938Z,62.87
2019-01-24T19:08:03.341Z,58.00
2019-01-24T19:10:31.778Z,60.63
2019-01-24T19:13:00.170Z,63.93
2019-01-24T19:15:31.846Z,61.67
2019-01-24T19:18:03.188Z,64.83
2019-01-24T19:20:39.612Z,66.50
2019-01-24T19:23:07.753Z,66.60
2019-01-24T19:25:36.165Z,60.50
2019-01-24T19:28:07.243Z,64.33
2019-01-24T19:30:35.838Z,62.60
2019-01-24T19:33:07.811Z,67.90
2019-01-24T19:35:38.995Z,67.50
2019-01-24T19:38:08.756Z,62.63
2019-01-24T19:40:38.702Z,67.30
2019-01-24T19:43:08.057Z,79.13
2019-01-24T19:45:37.454Z,72.10
2019-01-24T19:48:08.718Z,66.70
2019-01-24T19:50:37.070Z,68.83
2019-01-24T19:53:05.431Z,65.63
2019-01-24T19:55:34.979Z,62.93
2019-01-24T19:58:06.478Z,67.47
2019-01-24T20:00:34.826Z,59.40
2019-01-24T20:03:04.834Z,63.67
2019-01-24T20:05:40.431Z,66.47
2019-01-24T20:08:16.721Z,63.27
2019-01-24T20:10:46.522Z,68.43
2019-01-24T20:13:17.344Z,67.20
2019-01-24T20:15:49.677Z,65.60
2019-01-24T20:18:19.885Z,62.00
2019-01-24T20:20:48.733Z,67.13
2019-01-24T20:23:19.763Z,64.23
2019-01-24T20:26:02.675Z,71.23
2019-01-24T20:28:54.574Z,68.63
2019-01-24T20:31:28.370Z,61.27
2019-01-24T20:33:56.543Z,61.67
2019-01-24T20:36:29.766Z,68.93
2019-01-24T20:39:07.471Z,63.80
2019-01-24T20:41:40.473Z,58.33
2019-01-24T20:44:14.111Z,73.20
2019-01-24T20:46:44.407Z,68.53
2019-01-24T20:49:15.206Z,67.83
2019-01-24T20:51:50.591Z,73.33
2019-01-24T20:54:30.560Z,69.47
2019-01-24T20:56:59.803Z,66.60
2019-01-24T20:59:29.316Z,69.97
2019-01-24T21:01:57.724Z,69.53
2019-01-24T21:04:38.008Z,62.60
2019-01-24T21:07:10.944Z,66.23
2019-01-24T21:09:43.653Z,65.87
2019-01-24T21:12:13.186Z,68.27
2019-01-24T21:14:44.584Z,62.87
2019-01-24T21:17:18.335Z,69.70
2019-01-24T21:19:52.539Z,65.53
2019-01-24T21:22:27.499Z,54.37
2019-01-24T21:24:56.454Z,68.73
2019-01-24T21:27:28.870Z,62.80
2019-01-24T21:29:59.722Z,56.33
2019-01-24T21:32:31.223Z,64.73
2019-01-24T21:34:59.610Z,67.03
2019-01-24T21:37:33.376Z,63.30
2019-01-24T21:40:01.757Z,60.90
2019-01-24T21:42:30.303Z,63.83
2019-01-24T21:44:58.682Z,66.70
2019-01-24T21:47:27.056Z,62.73
2019-01-24T21:50:00.713Z,72.07
2019-01-24T21:52:37.484Z,59.77
2019-01-24T21:55:07.826Z,66.43
2019-01-24T21:57:44.257Z,69.13
2019-01-24T22:00:23.449Z,69.50
2019-01-24T22:02:54.297Z,63.33
2019-01-24T22:05:23.643Z,68.70
2019-01-24T22:07:53.865Z,70.30
2019-01-24T22:10:27.429Z,69.33
2019-01-24T22:13:06.535Z,60.20
2019-01-24T22:15:35.484Z,61.77
2019-01-24T22:18:09.826Z,68.13
2019-01-24T22:20:41.648Z,61.90
2019-01-24T22:23:12.503Z,61.13
2019-01-24T22:25:51.112Z,62.47
2019-01-24T22:28:19.517Z,63.30
2019-01-24T22:30:49.500Z,65.97
2019-01-24T22:33:18.955Z,64.30
2019-01-24T22:35:47.331Z,64.07
2019-01-24T22:38:15.690Z,68.00
2019-01-24T22:40:44.086Z,65.43
2019-01-24T22:43:12.455Z,60.80
2019-01-24T22:45:41.903Z,68.83
2019-01-24T22:48:10.267Z,67.27
2019-01-24T22:50:39.822Z,62.20
2019-01-24T22:53:08.203Z,60.77
2019-01-24T22:55:40.909Z,58.23
2019-01-24T22:58:11.737Z,60.97
2019-01-24T23:00:47.591Z,64.17
2019-01-24T23:03:31.643Z,56.17
2019-01-24T23:06:02.080Z,58.47
2019-01-24T23:08:32.897Z,73.00
2019-01-24T23:11:07.448Z,66.07
2019-01-24T23:13:42.249Z,66.93
2019-01-24T23:16:16.925Z,69.43
2019-01-24T23:18:49.842Z,66.90
2019-01-24T23:21:27.259Z,60.17
2019-01-24T23:24:09.702Z,65.20
2019-01-24T23:26:32.547Z,65.97
2019-01-24T23:29:11.692Z,64.13
2019-01-24T23:31:39.953Z,68.00
2019-01-24T23:34:08.319Z,63.67
2019-01-24T23:36:36.700Z,68.27
2019-01-24T23:39:06.438Z,59.87
2019-01-24T23:41:34.831Z,69.50
2019-01-24T23:44:03.202Z,66.67
2019-01-24T23:46:31.589Z,66.33
2019-01-24T23:48:59.984Z,58.07
2019-01-24T23:51:28.384Z,64.13
2019-01-24T23:54:06.222Z,69.07
2019-01-24T23:56:45.628Z,61.60
2019-01-24T23:59:23.639Z,66.87
